sensor_id;sensor_type;location;lat;lon;timestamp;temperature;humidity
5881;DHT22;2966;52.598;10.928;2023-04-24T00:00:58;12.60;99.90
5881;DHT22;2966;52.598;10.928;2023-04-24T00:03:26;12.60;99.90
5881;DHT22;2966;52.598;10.928;2023-04-24T00:05:54;12.60;99.90
5881;DHT22;2966;52.598;10.928;2023-04-24T00:08:21;12.50;99.90
5881;DHT22;2966;52.598;10.928;2023-04-24T00:10:48;12.50;99.90
5881;DHT22;2966;52.598;10.928;2023-04-24T00:13:14;12.60;99.90
5881;DHT22;2966;52.598;10.928;2023-04-24T00:15:44;12.60;99.90
5881;DHT22;2966;52.598;10.928;2023-04-24T00:18:12;12.60;99.90
5881;DHT22;2966;52.598;10.928;2023-04-24T00:20:39;12.60;99.90
5881;DHT22;2966;52.598;10.928;2023-04-24T00:23:06;12.50;99.90
5881;DHT22;2966;52.598;10.928;2023-04-24T00:25:32;12.50;99.90
5881;DHT22;2966;52.598;10.928;2023-04-24T00:28:02;12.50;99.90
5881;DHT22;2966;52.598;10.928;2023-04-24T00:30:29;12.50;99.90
5881;DHT22;2966;52.598;10.928;2023-04-24T00:32:55;12.50;99.90
5881;DHT22;2966;52.598;10.928;2023-04-24T00:35:23;12.50;99.90
5881;DHT22;2966;52.598;10.928;2023-04-24T00:37:50;12.50;99.90
5881;DHT22;2966;52.598;10.928;2023-04-24T00:40:17;12.50;99.90
5881;DHT22;2966;52.598;10.928;2023-04-24T00:42:43;12.40;99.90
5881;DHT22;2966;52.598;10.928;2023-04-24T00:45:10;12.40;99.90
5881;DHT22;2966;52.598;10.928;2023-04-24T00:47:38;12.50;99.90
5881;DHT22;2966;52.598;10.928;2023-04-24T00:50:06;12.60;99.90
5881;DHT22;2966;52.598;10.928;2023-04-24T00:52:34;12.60;99.90
5881;DHT22;2966;52.598;10.928;2023-04-24T00:55:02;12.60;99.90
5881;DHT22;2966;52.598;10.928;2023-04-24T00:57:30;12.60;99.90
5881;DHT22;2966;52.598;10.928;2023-04-24T00:59:57;12.60;99.90
5881;DHT22;2966;52.598;10.928;2023-04-24T01:02:24;12.70;99.90
5881;DHT22;2966;52.598;10.928;2023-04-24T01:04:55;12.60;99.90
5881;DHT22;2966;52.598;10.928;2023-04-24T01:07:22;12.50;99.90
5881;DHT22;2966;52.598;10.928;2023-04-24T01:09:50;12.40;99.90
5881;DHT22;2966;52.598;10.928;2023-04-24T01:12:17;12.30;99.90
5881;DHT22;2966;52.598;10.928;2023-04-24T01:14:44;12.20;99.90
5881;DHT22;2966;52.598;10.928;2023-04-24T01:17:11;12.20;99.90
5881;DHT22;2966;52.598;10.928;2023-04-24T01:19:38;12.20;99.90
5881;DHT22;2966;52.598;10.928;2023-04-24T01:22:10;12.30;99.90
5881;DHT22;2966;52.598;10.928;2023-04-24T01:24:37;12.20;99.90
5881;DHT22;2966;52.598;10.928;2023-04-24T01:27:04;12.20;99.90
5881;DHT22;2966;52.598;10.928;2023-04-24T01:29:31;12.10;99.90
5881;DHT22;2966;52.598;10.928;2023-04-24T01:31:58;12.00;99.90
5881;DHT22;2966;52.598;10.928;2023-04-24T01:34:28;11.90;99.90
5881;DHT22;2966;52.598;10.928;2023-04-24T01:36:55;11.80;99.90
5881;DHT22;2966;52.598;10.928;2023-04-24T01:39:23;11.80;99.90
5881;DHT22;2966;52.598;10.928;2023-04-24T01:41:51;11.70;99.90
5881;DHT22;2966;52.598;10.928;2023-04-24T01:44:21;11.60;99.90
5881;DHT22;2966;52.598;10.928;2023-04-24T01:46:48;11.60;99.90
5881;DHT22;2966;52.598;10.928;2023-04-24T01:49:15;11.50;99.90
5881;DHT22;2966;52.598;10.928;2023-04-24T01:51:42;11.40;99.90
5881;DHT22;2966;52.598;10.928;2023-04-24T01:54:08;11.50;99.90
5881;DHT22;2966;52.598;10.928;2023-04-24T01:56:42;11.50;99.90
5881;DHT22;2966;52.598;10.928;2023-04-24T01:59:10;11.60;99.90
5881;DHT22;2966;52.598;10.928;2023-04-24T02:01:37;11.60;99.90
5881;DHT22;2966;52.598;10.928;2023-04-24T02:04:04;11.70;99.90
5881;DHT22;2966;52.598;10.928;2023-04-24T02:06:31;11.70;99.90
5881;DHT22;2966;52.598;10.928;2023-04-24T02:08:58;11.70;99.90
5881;DHT22;2966;52.598;10.928;2023-04-24T02:11:25;11.70;99.90
5881;DHT22;2966;52.598;10.928;2023-04-24T02:13:53;11.60;99.90
5881;DHT22;2966;52.598;10.928;2023-04-24T02:16:20;11.50;99.90
5881;DHT22;2966;52.598;10.928;2023-04-24T02:18:47;11.50;99.90
5881;DHT22;2966;52.598;10.928;2023-04-24T02:21:14;11.40;99.90
5881;DHT22;2966;52.598;10.928;2023-04-24T02:23:40;11.40;99.90
5881;DHT22;2966;52.598;10.928;2023-04-24T02:26:07;11.30;99.90
5881;DHT22;2966;52.598;10.928;2023-04-24T02:28:34;11.20;99.90
5881;DHT22;2966;52.598;10.928;2023-04-24T02:31:11;11.20;99.90
5881;DHT22;2966;52.598;10.928;2023-04-24T02:33:38;11.20;99.90
5881;DHT22;2966;52.598;10.928;2023-04-24T02:36:05;11.20;99.90
5881;DHT22;2966;52.598;10.928;2023-04-24T02:38:31;11.10;99.90
5881;DHT22;2966;52.598;10.928;2023-04-24T02:40:58;11.10;99.90
5881;DHT22;2966;52.598;10.928;2023-04-24T02:43:26;11.10;99.90
5881;DHT22;2966;52.598;10.928;2023-04-24T02:45:52;11.00;99.90
5881;DHT22;2966;52.598;10.928;2023-04-24T02:48:20;11.10;99.90
5881;DHT22;2966;52.598;10.928;2023-04-24T02:50:47;11.10;99.90
5881;DHT22;2966;52.598;10.928;2023-04-24T02:53:14;11.00;99.90
5881;DHT22;2966;52.598;10.928;2023-04-24T02:55:40;11.00;99.90
5881;DHT22;2966;52.598;10.928;2023-04-24T02:58:07;11.00;99.90
5881;DHT22;2966;52.598;10.928;2023-04-24T03:00:34;10.90;99.90
5881;DHT22;2966;52.598;10.928;2023-04-24T03:03:01;10.90;99.90
5881;DHT22;2966;52.598;10.928;2023-04-24T03:05:29;10.90;99.90
5881;DHT22;2966;52.598;10.928;2023-04-24T03:07:56;10.90;99.90
5881;DHT22;2966;52.598;10.928;2023-04-24T03:10:23;10.90;99.90
5881;DHT22;2966;52.598;10.928;2023-04-24T03:12:49;10.80;99.90
5881;DHT22;2966;52.598;10.928;2023-04-24T03:15:16;10.80;99.90
5881;DHT22;2966;52.598;10.928;2023-04-24T03:17:45;10.80;99.90
5881;DHT22;2966;52.598;10.928;2023-04-24T03:20:14;10.80;99.90
5881;DHT22;2966;52.598;10.928;2023-04-24T03:22:42;10.70;99.90
5881;DHT22;2966;52.598;10.928;2023-04-24T03:25:09;10.70;99.90
5881;DHT22;2966;52.598;10.928;2023-04-24T03:27:39;10.80;99.90
5881;DHT22;2966;52.598;10.928;2023-04-24T03:30:07;10.80;99.90
5881;DHT22;2966;52.598;10.928;2023-04-24T03:32:34;10.80;99.90
5881;DHT22;2966;52.598;10.928;2023-04-24T03:35:01;10.80;99.90
5881;DHT22;2966;52.598;10.928;2023-04-24T03:37:32;10.80;99.90
5881;DHT22;2966;52.598;10.928;2023-04-24T03:40:00;10.70;99.90
5881;DHT22;2966;52.598;10.928;2023-04-24T03:42:26;10.70;99.90
5881;DHT22;2966;52.598;10.928;2023-04-24T03:44:53;10.60;99.90
5881;DHT22;2966;52.598;10.928;2023-04-24T03:47:20;10.60;99.90
5881;DHT22;2966;52.598;10.928;2023-04-24T03:49:46;10.60;99.90
5881;DHT22;2966;52.598;10.928;2023-04-24T03:52:13;10.70;99.90
5881;DHT22;2966;52.598;10.928;2023-04-24T03:54:39;10.70;99.90
5881;DHT22;2966;52.598;10.928;2023-04-24T03:57:07;10.70;99.90
5881;DHT22;2966;52.598;10.928;2023-04-24T03:59:34;10.80;99.90
5881;DHT22;2966;52.598;10.928;2023-04-24T04:02:01;10.70;99.90
5881;DHT22;2966;52.598;10.928;2023-04-24T04:04:27;10.70;99.90
5881;DHT22;2966;52.598;10.928;2023-04-24T04:06:54;10.70;99.90
5881;DHT22;2966;52.598;10.928;2023-04-24T04:09:21;10.70;99.90
5881;DHT22;2966;52.598;10.928;2023-04-24T04:11:48;10.60;99.90
5881;DHT22;2966;52.598;10.928;2023-04-24T04:14:16;10.50;99.90
5881;DHT22;2966;52.598;10.928;2023-04-24T04:16:42;10.50;99.90
5881;DHT22;2966;52.598;10.928;2023-04-24T04:19:09;10.50;99.90
5881;DHT22;2966;52.598;10.928;2023-04-24T04:21:35;10.50;99.90
5881;DHT22;2966;52.598;10.928;2023-04-24T04:24:02;10.50;99.90
5881;DHT22;2966;52.598;10.928;2023-04-24T04:26:30;10.50;99.90
5881;DHT22;2966;52.598;10.928;2023-04-24T04:28:58;10.50;99.90
5881;DHT22;2966;52.598;10.928;2023-04-24T04:31:27;10.50;99.90
5881;DHT22;2966;52.598;10.928;2023-04-24T04:33:54;10.50;99.90
5881;DHT22;2966;52.598;10.928;2023-04-24T04:36:20;10.50;99.90
5881;DHT22;2966;52.598;10.928;2023-04-24T04:38:54;10.50;99.90
5881;DHT22;2966;52.598;10.928;2023-04-24T04:41:22;10.50;99.90
5881;DHT22;2966;52.598;10.928;2023-04-24T04:43:49;10.50;99.90
5881;DHT22;2966;52.598;10.928;2023-04-24T04:46:16;10.50;99.90
5881;DHT22;2966;52.598;10.928;2023-04-24T04:48:44;10.60;99.90
5881;DHT22;2966;52.598;10.928;2023-04-24T04:51:11;10.70;99.90
5881;DHT22;2966;52.598;10.928;2023-04-24T04:53:39;10.70;99.90
5881;DHT22;2966;52.598;10.928;2023-04-24T04:56:05;10.80;99.90
5881;DHT22;2966;52.598;10.928;2023-04-24T04:58:33;10.80;99.90
5881;DHT22;2966;52.598;10.928;2023-04-24T05:00:59;10.80;99.90
5881;DHT22;2966;52.598;10.928;2023-04-24T05:03:26;10.80;99.90
5881;DHT22;2966;52.598;10.928;2023-04-24T05:05:54;10.70;99.90
5881;DHT22;2966;52.598;10.928;2023-04-24T05:08:21;10.70;99.90
5881;DHT22;2966;52.598;10.928;2023-04-24T05:10:47;10.70;99.90
5881;DHT22;2966;52.598;10.928;2023-04-24T05:13:14;10.70;99.90
5881;DHT22;2966;52.598;10.928;2023-04-24T05:15:41;10.70;99.90
5881;DHT22;2966;52.598;10.928;2023-04-24T05:18:07;10.70;99.90
5881;DHT22;2966;52.598;10.928;2023-04-24T05:20:34;10.70;99.90
5881;DHT22;2966;52.598;10.928;2023-04-24T05:23:02;10.70;99.90
5881;DHT22;2966;52.598;10.928;2023-04-24T05:25:29;10.70;99.90
5881;DHT22;2966;52.598;10.928;2023-04-24T05:27:57;10.70;99.90
5881;DHT22;2966;52.598;10.928;2023-04-24T05:30:24;10.70;99.90
5881;DHT22;2966;52.598;10.928;2023-04-24T05:32:51;10.60;99.90
5881;DHT22;2966;52.598;10.928;2023-04-24T05:35:17;10.70;99.90
5881;DHT22;2966;52.598;10.928;2023-04-24T05:37:45;10.70;99.90
5881;DHT22;2966;52.598;10.928;2023-04-24T05:40:13;10.70;99.90
5881;DHT22;2966;52.598;10.928;2023-04-24T05:42:39;10.80;99.90
5881;DHT22;2966;52.598;10.928;2023-04-24T05:45:09;10.80;99.90
5881;DHT22;2966;52.598;10.928;2023-04-24T05:47:41;10.90;99.90
5881;DHT22;2966;52.598;10.928;2023-04-24T05:50:09;11.00;99.90
5881;DHT22;2966;52.598;10.928;2023-04-24T05:52:36;11.00;99.90
5881;DHT22;2966;52.598;10.928;2023-04-24T05:55:03;11.10;99.90
5881;DHT22;2966;52.598;10.928;2023-04-24T05:57:31;11.10;99.90
5881;DHT22;2966;52.598;10.928;2023-04-24T05:59:58;11.30;99.90
5881;DHT22;2966;52.598;10.928;2023-04-24T06:02:24;11.30;99.90
5881;DHT22;2966;52.598;10.928;2023-04-24T06:04:54;11.30;99.90
5881;DHT22;2966;52.598;10.928;2023-04-24T06:07:20;11.40;99.90
5881;DHT22;2966;52.598;10.928;2023-04-24T06:09:47;11.50;99.90
5881;DHT22;2966;52.598;10.928;2023-04-24T06:12:14;11.60;99.90
5881;DHT22;2966;52.598;10.928;2023-04-24T06:14:42;11.60;99.90
5881;DHT22;2966;52.598;10.928;2023-04-24T06:17:09;11.60;99.90
5881;DHT22;2966;52.598;10.928;2023-04-24T06:19:35;11.60;99.90
5881;DHT22;2966;52.598;10.928;2023-04-24T06:22:02;11.70;99.90
5881;DHT22;2966;52.598;10.928;2023-04-24T06:24:29;11.80;99.90
5881;DHT22;2966;52.598;10.928;2023-04-24T06:26:56;11.80;99.90
5881;DHT22;2966;52.598;10.928;2023-04-24T06:29:24;11.90;99.90
5881;DHT22;2966;52.598;10.928;2023-04-24T06:31:52;12.00;99.90
5881;DHT22;2966;52.598;10.928;2023-04-24T06:34:19;12.00;99.90
5881;DHT22;2966;52.598;10.928;2023-04-24T06:36:46;12.00;99.90
5881;DHT22;2966;52.598;10.928;2023-04-24T06:39:13;12.00;99.90
5881;DHT22;2966;52.598;10.928;2023-04-24T06:41:40;12.10;99.90
5881;DHT22;2966;52.598;10.928;2023-04-24T06:44:07;12.10;99.90
5881;DHT22;2966;52.598;10.928;2023-04-24T06:46:34;12.20;99.90
5881;DHT22;2966;52.598;10.928;2023-04-24T06:49:02;12.30;99.90
5881;DHT22;2966;52.598;10.928;2023-04-24T06:51:28;12.40;99.90
5881;DHT22;2966;52.598;10.928;2023-04-24T06:53:56;12.50;99.90
5881;DHT22;2966;52.598;10.928;2023-04-24T06:56:22;12.70;99.90
5881;DHT22;2966;52.598;10.928;2023-04-24T06:58:49;12.80;99.90
5881;DHT22;2966;52.598;10.928;2023-04-24T07:01:16;12.80;99.90
5881;DHT22;2966;52.598;10.928;2023-04-24T07:03:43;13.00;99.90
5881;DHT22;2966;52.598;10.928;2023-04-24T07:06:13;13.20;99.90
5881;DHT22;2966;52.598;10.928;2023-04-24T07:08:41;13.30;99.90
5881;DHT22;2966;52.598;10.928;2023-04-24T07:11:09;13.20;99.90
5881;DHT22;2966;52.598;10.928;2023-04-24T07:13:35;13.10;99.90
5881;DHT22;2966;52.598;10.928;2023-04-24T07:16:07;13.10;99.90
5881;DHT22;2966;52.598;10.928;2023-04-24T07:18:33;12.80;99.90
5881;DHT22;2966;52.598;10.928;2023-04-24T07:21:00;12.80;99.90
5881;DHT22;2966;52.598;10.928;2023-04-24T07:23:29;12.80;99.90
5881;DHT22;2966;52.598;10.928;2023-04-24T07:25:57;12.70;99.90
5881;DHT22;2966;52.598;10.928;2023-04-24T07:28:23;12.60;99.90
5881;DHT22;2966;52.598;10.928;2023-04-24T07:30:51;12.70;99.90
5881;DHT22;2966;52.598;10.928;2023-04-24T07:33:19;12.70;99.90
5881;DHT22;2966;52.598;10.928;2023-04-24T07:35:48;12.60;99.90
5881;DHT22;2966;52.598;10.928;2023-04-24T07:38:15;12.60;99.90
5881;DHT22;2966;52.598;10.928;2023-04-24T07:40:43;12.50;99.90
5881;DHT22;2966;52.598;10.928;2023-04-24T07:43:09;12.50;99.90
5881;DHT22;2966;52.598;10.928;2023-04-24T07:45:36;12.40;99.90
5881;DHT22;2966;52.598;10.928;2023-04-24T07:48:03;12.50;99.90
5881;DHT22;2966;52.598;10.928;2023-04-24T07:50:30;12.60;99.90
5881;DHT22;2966;52.598;10.928;2023-04-24T07:52:57;12.80;99.90
5881;DHT22;2966;52.598;10.928;2023-04-24T07:55:23;12.70;99.90
5881;DHT22;2966;52.598;10.928;2023-04-24T07:57:51;12.80;99.90
5881;DHT22;2966;52.598;10.928;2023-04-24T08:00:18;12.80;99.90
5881;DHT22;2966;52.598;10.928;2023-04-24T08:02:45;13.00;99.90
5881;DHT22;2966;52.598;10.928;2023-04-24T08:05:12;13.20;99.90
5881;DHT22;2966;52.598;10.928;2023-04-24T08:07:38;13.60;99.90
5881;DHT22;2966;52.598;10.928;2023-04-24T08:10:09;13.50;99.90
5881;DHT22;2966;52.598;10.928;2023-04-24T08:12:36;13.70;99.90
5881;DHT22;2966;52.598;10.928;2023-04-24T08:15:06;14.10;99.90
5881;DHT22;2966;52.598;10.928;2023-04-24T08:17:33;14.40;99.90
5881;DHT22;2966;52.598;10.928;2023-04-24T08:19:59;14.30;99.90
5881;DHT22;2966;52.598;10.928;2023-04-24T08:22:27;13.90;99.90
5881;DHT22;2966;52.598;10.928;2023-04-24T08:24:54;13.40;99.90
5881;DHT22;2966;52.598;10.928;2023-04-24T08:27:21;12.40;99.90
5881;DHT22;2966;52.598;10.928;2023-04-24T08:29:48;12.00;99.90
5881;DHT22;2966;52.598;10.928;2023-04-24T08:32:16;11.70;99.90
5881;DHT22;2966;52.598;10.928;2023-04-24T08:34:43;11.50;99.90
5881;DHT22;2966;52.598;10.928;2023-04-24T08:37:10;11.40;99.90
5881;DHT22;2966;52.598;10.928;2023-04-24T08:39:37;11.40;99.90
5881;DHT22;2966;52.598;10.928;2023-04-24T08:42:04;11.30;99.90
5881;DHT22;2966;52.598;10.928;2023-04-24T08:44:35;11.30;99.90
5881;DHT22;2966;52.598;10.928;2023-04-24T08:47:02;11.30;99.90
5881;DHT22;2966;52.598;10.928;2023-04-24T08:49:31;11.30;99.90
5881;DHT22;2966;52.598;10.928;2023-04-24T08:51:58;11.20;99.90
5881;DHT22;2966;52.598;10.928;2023-04-24T08:54:29;11.00;99.90
5881;DHT22;2966;52.598;10.928;2023-04-24T08:56:59;10.90;99.90
5881;DHT22;2966;52.598;10.928;2023-04-24T08:59:27;10.90;99.90
5881;DHT22;2966;52.598;10.928;2023-04-24T09:01:55;10.90;99.90
5881;DHT22;2966;52.598;10.928;2023-04-24T09:04:22;11.00;99.90
5881;DHT22;2966;52.598;10.928;2023-04-24T09:07:00;11.10;99.90
5881;DHT22;2966;52.598;10.928;2023-04-24T09:09:30;11.20;99.90
5881;DHT22;2966;52.598;10.928;2023-04-24T09:11:57;11.30;99.90
5881;DHT22;2966;52.598;10.928;2023-04-24T09:14:24;11.50;99.90
5881;DHT22;2966;52.598;10.928;2023-04-24T09:16:52;11.90;99.90
5881;DHT22;2966;52.598;10.928;2023-04-24T09:19:19;12.00;99.90
5881;DHT22;2966;52.598;10.928;2023-04-24T09:21:47;12.10;99.90
5881;DHT22;2966;52.598;10.928;2023-04-24T09:24:19;12.00;99.90
5881;DHT22;2966;52.598;10.928;2023-04-24T09:26:48;12.10;99.90
5881;DHT22;2966;52.598;10.928;2023-04-24T09:29:16;11.90;99.90
5881;DHT22;2966;52.598;10.928;2023-04-24T09:31:43;12.00;99.90
5881;DHT22;2966;52.598;10.928;2023-04-24T09:34:09;12.10;99.90
5881;DHT22;2966;52.598;10.928;2023-04-24T09:36:37;12.50;99.90
5881;DHT22;2966;52.598;10.928;2023-04-24T09:39:07;12.80;99.90
5881;DHT22;2966;52.598;10.928;2023-04-24T09:41:44;12.50;99.90
5881;DHT22;2966;52.598;10.928;2023-04-24T09:44:13;12.80;99.90
5881;DHT22;2966;52.598;10.928;2023-04-24T09:46:41;13.30;99.90
5881;DHT22;2966;52.598;10.928;2023-04-24T09:49:08;13.40;99.90
5881;DHT22;2966;52.598;10.928;2023-04-24T09:51:37;13.70;99.90
5881;DHT22;2966;52.598;10.928;2023-04-24T09:54:04;13.80;99.90
5881;DHT22;2966;52.598;10.928;2023-04-24T09:56:33;14.00;99.90
5881;DHT22;2966;52.598;10.928;2023-04-24T09:59:05;13.80;99.90
5881;DHT22;2966;52.598;10.928;2023-04-24T10:01:33;14.10;99.90
5881;DHT22;2966;52.598;10.928;2023-04-24T10:04:00;14.40;99.90
5881;DHT22;2966;52.598;10.928;2023-04-24T10:06:32;14.50;99.90
5881;DHT22;2966;52.598;10.928;2023-04-24T10:08:59;14.60;99.90
5881;DHT22;2966;52.598;10.928;2023-04-24T10:11:27;14.70;99.90
5881;DHT22;2966;52.598;10.928;2023-04-24T10:13:54;14.80;99.90
5881;DHT22;2966;52.598;10.928;2023-04-24T10:16:23;15.10;99.90
5881;DHT22;2966;52.598;10.928;2023-04-24T10:18:49;15.30;99.90
5881;DHT22;2966;52.598;10.928;2023-04-24T10:21:17;15.60;99.90
5881;DHT22;2966;52.598;10.928;2023-04-24T10:23:43;15.60;99.90
5881;DHT22;2966;52.598;10.928;2023-04-24T10:26:12;15.50;99.90
5881;DHT22;2966;52.598;10.928;2023-04-24T10:28:44;14.70;99.90
5881;DHT22;2966;52.598;10.928;2023-04-24T10:31:12;14.30;99.90
5881;DHT22;2966;52.598;10.928;2023-04-24T10:33:41;14.00;99.90
5881;DHT22;2966;52.598;10.928;2023-04-24T10:36:09;13.80;99.90
5881;DHT22;2966;52.598;10.928;2023-04-24T10:38:40;13.90;99.90
5881;DHT22;2966;52.598;10.928;2023-04-24T10:41:09;13.80;99.90
5881;DHT22;2966;52.598;10.928;2023-04-24T10:43:41;13.90;99.90
5881;DHT22;2966;52.598;10.928;2023-04-24T10:46:08;13.90;99.90
5881;DHT22;2966;52.598;10.928;2023-04-24T10:48:47;13.90;99.90
5881;DHT22;2966;52.598;10.928;2023-04-24T10:51:18;13.90;99.90
5881;DHT22;2966;52.598;10.928;2023-04-24T10:53:49;14.00;99.90
5881;DHT22;2966;52.598;10.928;2023-04-24T10:56:16;13.90;99.90
5881;DHT22;2966;52.598;10.928;2023-04-24T10:58:44;13.80;99.90
5881;DHT22;2966;52.598;10.928;2023-04-24T11:01:23;13.70;99.90
5881;DHT22;2966;52.598;10.928;2023-04-24T11:03:56;13.60;99.90
5881;DHT22;2966;52.598;10.928;2023-04-24T11:06:29;13.60;99.90
5881;DHT22;2966;52.598;10.928;2023-04-24T11:09:02;13.60;99.90
5881;DHT22;2966;52.598;10.928;2023-04-24T11:11:29;13.60;99.90
5881;DHT22;2966;52.598;10.928;2023-04-24T11:14:04;13.60;99.90
5881;DHT22;2966;52.598;10.928;2023-04-24T11:16:33;13.50;99.90
5881;DHT22;2966;52.598;10.928;2023-04-24T11:19:03;13.60;99.90
5881;DHT22;2966;52.598;10.928;2023-04-24T11:21:42;14.10;99.90
5881;DHT22;2966;52.598;10.928;2023-04-24T11:24:30;14.60;99.90
5881;DHT22;2966;52.598;10.928;2023-04-24T11:27:06;14.40;99.90
5881;DHT22;2966;52.598;10.928;2023-04-24T11:29:47;14.40;99.90
5881;DHT22;2966;52.598;10.928;2023-04-24T11:32:18;14.40;99.90
5881;DHT22;2966;52.598;10.928;2023-04-24T11:34:48;14.50;99.90
5881;DHT22;2966;52.598;10.928;2023-04-24T11:37:16;14.50;99.90
5881;DHT22;2966;52.598;10.928;2023-04-24T11:39:43;14.20;99.90
5881;DHT22;2966;52.598;10.928;2023-04-24T11:42:10;14.10;99.90
5881;DHT22;2966;52.598;10.928;2023-04-24T11:44:37;14.20;99.90
5881;DHT22;2966;52.598;10.928;2023-04-24T11:47:04;14.10;99.90
5881;DHT22;2966;52.598;10.928;2023-04-24T11:49:32;13.80;99.90
5881;DHT22;2966;52.598;10.928;2023-04-24T11:52:01;13.70;99.90
5881;DHT22;2966;52.598;10.928;2023-04-24T11:54:27;13.60;99.90
5881;DHT22;2966;52.598;10.928;2023-04-24T11:56:56;13.60;99.90
5881;DHT22;2966;52.598;10.928;2023-04-24T11:59:23;14.10;99.90
5881;DHT22;2966;52.598;10.928;2023-04-24T12:01:49;14.10;99.90
5881;DHT22;2966;52.598;10.928;2023-04-24T12:04:17;13.90;99.90
5881;DHT22;2966;52.598;10.928;2023-04-24T12:07:00;13.90;99.90
5881;DHT22;2966;52.598;10.928;2023-04-24T12:09:27;13.90;99.90
5881;DHT22;2966;52.598;10.928;2023-04-24T12:11:53;14.10;99.90
5881;DHT22;2966;52.598;10.928;2023-04-24T12:14:21;14.80;99.90
5881;DHT22;2966;52.598;10.928;2023-04-24T12:16:48;15.60;99.90
5881;DHT22;2966;52.598;10.928;2023-04-24T12:19:18;15.40;99.90
5881;DHT22;2966;52.598;10.928;2023-04-24T12:21:59;14.90;99.90
5881;DHT22;2966;52.598;10.928;2023-04-24T12:24:27;14.60;99.90
5881;DHT22;2966;52.598;10.928;2023-04-24T12:26:53;14.60;99.90
5881;DHT22;2966;52.598;10.928;2023-04-24T12:29:20;14.40;99.90
5881;DHT22;2966;52.598;10.928;2023-04-24T12:31:47;14.50;99.90
5881;DHT22;2966;52.598;10.928;2023-04-24T12:34:18;14.30;99.90
5881;DHT22;2966;52.598;10.928;2023-04-24T12:36:45;14.30;99.90
5881;DHT22;2966;52.598;10.928;2023-04-24T12:39:15;14.30;99.90
5881;DHT22;2966;52.598;10.928;2023-04-24T12:41:54;14.10;99.90
5881;DHT22;2966;52.598;10.928;2023-04-24T12:44:29;14.00;99.90
5881;DHT22;2966;52.598;10.928;2023-04-24T12:46:55;13.80;99.90
5881;DHT22;2966;52.598;10.928;2023-04-24T12:49:22;13.80;99.90
5881;DHT22;2966;52.598;10.928;2023-04-24T12:51:49;13.70;99.90
5881;DHT22;2966;52.598;10.928;2023-04-24T12:54:15;14.10;99.90
5881;DHT22;2966;52.598;10.928;2023-04-24T12:56:42;14.50;99.90
5881;DHT22;2966;52.598;10.928;2023-04-24T12:59:10;15.00;99.90
5881;DHT22;2966;52.598;10.928;2023-04-24T13:01:37;15.00;99.90
5881;DHT22;2966;52.598;10.928;2023-04-24T13:04:04;15.10;99.90
5881;DHT22;2966;52.598;10.928;2023-04-24T13:06:30;14.70;99.90
5881;DHT22;2966;52.598;10.928;2023-04-24T13:09:00;14.40;99.90
5881;DHT22;2966;52.598;10.928;2023-04-24T13:11:27;14.10;99.90
5881;DHT22;2966;52.598;10.928;2023-04-24T13:13:56;13.90;99.90
5881;DHT22;2966;52.598;10.928;2023-04-24T13:16:24;13.60;99.90
5881;DHT22;2966;52.598;10.928;2023-04-24T13:18:50;13.40;99.90
5881;DHT22;2966;52.598;10.928;2023-04-24T13:21:19;13.30;99.90
5881;DHT22;2966;52.598;10.928;2023-04-24T13:23:45;13.10;99.90
5881;DHT22;2966;52.598;10.928;2023-04-24T13:26:12;12.50;99.90
5881;DHT22;2966;52.598;10.928;2023-04-24T13:28:39;11.70;99.90
5881;DHT22;2966;52.598;10.928;2023-04-24T13:31:05;11.20;99.90
5881;DHT22;2966;52.598;10.928;2023-04-24T13:33:34;11.00;99.90
5881;DHT22;2966;52.598;10.928;2023-04-24T13:36:00;11.00;99.90
5881;DHT22;2966;52.598;10.928;2023-04-24T13:38:27;11.10;99.90
5881;DHT22;2966;52.598;10.928;2023-04-24T13:40:54;11.40;99.90
5881;DHT22;2966;52.598;10.928;2023-04-24T13:43:21;11.50;99.90
5881;DHT22;2966;52.598;10.928;2023-04-24T13:45:48;11.60;99.90
5881;DHT22;2966;52.598;10.928;2023-04-24T13:48:14;11.70;99.90
5881;DHT22;2966;52.598;10.928;2023-04-24T13:50:43;11.90;99.90
5881;DHT22;2966;52.598;10.928;2023-04-24T13:53:10;12.20;99.90
5881;DHT22;2966;52.598;10.928;2023-04-24T13:55:36;12.60;99.90
5881;DHT22;2966;52.598;10.928;2023-04-24T13:58:04;12.60;99.90
5881;DHT22;2966;52.598;10.928;2023-04-24T14:00:32;12.80;99.90
5881;DHT22;2966;52.598;10.928;2023-04-24T14:02:58;12.70;99.90
5881;DHT22;2966;52.598;10.928;2023-04-24T14:05:25;12.60;99.90
5881;DHT22;2966;52.598;10.928;2023-04-24T14:07:53;12.40;99.90
5881;DHT22;2966;52.598;10.928;2023-04-24T14:10:19;12.20;99.90
5881;DHT22;2966;52.598;10.928;2023-04-24T14:12:49;12.10;99.90
5881;DHT22;2966;52.598;10.928;2023-04-24T14:15:17;12.10;99.90
5881;DHT22;2966;52.598;10.928;2023-04-24T14:17:43;12.10;99.90
5881;DHT22;2966;52.598;10.928;2023-04-24T14:20:11;12.30;99.90
5881;DHT22;2966;52.598;10.928;2023-04-24T14:22:41;12.80;99.90
5881;DHT22;2966;52.598;10.928;2023-04-24T14:25:09;12.90;99.90
5881;DHT22;2966;52.598;10.928;2023-04-24T14:27:36;13.10;99.90
5881;DHT22;2966;52.598;10.928;2023-04-24T14:30:06;13.10;99.90
5881;DHT22;2966;52.598;10.928;2023-04-24T14:32:33;12.80;99.90
5881;DHT22;2966;52.598;10.928;2023-04-24T14:35:00;12.80;99.90
5881;DHT22;2966;52.598;10.928;2023-04-24T14:37:27;12.60;99.90
5881;DHT22;2966;52.598;10.928;2023-04-24T14:39:54;12.20;99.90
5881;DHT22;2966;52.598;10.928;2023-04-24T14:42:22;11.90;99.90
5881;DHT22;2966;52.598;10.928;2023-04-24T14:44:48;11.80;99.90
5881;DHT22;2966;52.598;10.928;2023-04-24T14:47:15;11.70;99.90
5881;DHT22;2966;52.598;10.928;2023-04-24T14:49:42;11.50;99.90
5881;DHT22;2966;52.598;10.928;2023-04-24T14:52:10;11.40;99.90
5881;DHT22;2966;52.598;10.928;2023-04-24T14:54:37;11.20;99.90
5881;DHT22;2966;52.598;10.928;2023-04-24T14:57:03;11.00;99.90
5881;DHT22;2966;52.598;10.928;2023-04-24T14:59:32;10.80;99.90
5881;DHT22;2966;52.598;10.928;2023-04-24T15:01:59;10.70;99.90
5881;DHT22;2966;52.598;10.928;2023-04-24T15:04:26;10.60;99.90
5881;DHT22;2966;52.598;10.928;2023-04-24T15:06:53;10.60;99.90
5881;DHT22;2966;52.598;10.928;2023-04-24T15:09:20;10.60;99.90
5881;DHT22;2966;52.598;10.928;2023-04-24T15:11:47;10.60;99.90
5881;DHT22;2966;52.598;10.928;2023-04-24T15:14:14;10.60;99.90
5881;DHT22;2966;52.598;10.928;2023-04-24T15:16:42;10.60;99.90
5881;DHT22;2966;52.598;10.928;2023-04-24T15:19:09;10.50;99.90
5881;DHT22;2966;52.598;10.928;2023-04-24T15:21:36;10.40;99.90
5881;DHT22;2966;52.598;10.928;2023-04-24T15:24:05;10.30;99.90
5881;DHT22;2966;52.598;10.928;2023-04-24T15:26:32;10.20;99.90
5881;DHT22;2966;52.598;10.928;2023-04-24T15:28:59;10.10;99.90
5881;DHT22;2966;52.598;10.928;2023-04-24T15:31:25;9.70;99.90
5881;DHT22;2966;52.598;10.928;2023-04-24T15:33:53;9.40;99.90
5881;DHT22;2966;52.598;10.928;2023-04-24T15:36:20;9.20;99.90
5881;DHT22;2966;52.598;10.928;2023-04-24T15:38:47;9.10;99.90
5881;DHT22;2966;52.598;10.928;2023-04-24T15:41:16;9.00;99.90
5881;DHT22;2966;52.598;10.928;2023-04-24T15:43:43;9.00;99.90
5881;DHT22;2966;52.598;10.928;2023-04-24T15:46:12;9.00;99.90
5881;DHT22;2966;52.598;10.928;2023-04-24T15:48:42;9.00;99.90
5881;DHT22;2966;52.598;10.928;2023-04-24T15:51:10;9.00;99.90